createdAt,value
2023-04-23T00:00:44.765Z,1.00
2023-04-23T00:03:14.963Z,1.20
2023-04-23T00:05:44.757Z,1.33
2023-04-23T00:08:12.416Z,1.20
2023-04-23T00:10:39.908Z,0.95
2023-04-23T00:13:07.485Z,1.10
2023-04-23T00:15:35.548Z,1.30
2023-04-23T00:18:03.207Z,1.20
2023-04-23T00:20:30.603Z,1.10
2023-04-23T00:22:58.114Z,1.20
2023-04-23T00:25:25.576Z,1.30
2023-04-23T00:27:52.972Z,1.20
2023-04-23T00:30:20.477Z,1.00
2023-04-23T00:32:48.579Z,1.08
2023-04-23T00:35:16.022Z,1.10
2023-04-23T00:37:43.432Z,1.20
2023-04-23T00:40:12.121Z,1.30
2023-04-23T00:42:40.129Z,1.20
2023-04-23T00:45:11.330Z,1.02
2023-04-23T00:47:40.429Z,1.25
2023-04-23T00:50:08.533Z,1.20
2023-04-23T00:52:36.308Z,1.13
2023-04-23T00:55:03.878Z,1.20
2023-04-23T00:57:32.248Z,1.60
2023-04-23T01:00:00.203Z,1.85
2023-04-23T01:02:30.229Z,1.10
2023-04-23T01:05:00.203Z,1.38
2023-04-23T01:07:28.065Z,1.20
2023-04-23T01:09:56.135Z,1.30
2023-04-23T01:12:23.720Z,1.10
2023-04-23T01:14:51.499Z,1.20
2023-04-23T01:17:18.978Z,1.40
2023-04-23T01:19:46.558Z,1.38
2023-04-23T01:22:15.127Z,1.10
2023-04-23T01:24:43.154Z,1.20
2023-04-23T01:27:11.600Z,1.40
2023-04-23T01:29:40.376Z,1.30
2023-04-23T01:32:08.512Z,1.40
2023-04-23T01:34:36.660Z,1.50
2023-04-23T01:37:04.773Z,1.25
2023-04-23T01:39:32.471Z,1.30
2023-04-23T01:42:01.444Z,1.45
2023-04-23T01:44:28.942Z,1.50
2023-04-23T01:46:57.676Z,1.25
2023-04-23T01:49:25.205Z,1.33
2023-04-23T01:51:52.942Z,1.13
2023-04-23T01:54:20.381Z,1.35
2023-04-23T01:56:47.757Z,1.17
2023-04-23T01:59:15.425Z,1.30
2023-04-23T02:01:46.980Z,1.20
2023-04-23T02:04:15.825Z,1.30
2023-04-23T02:06:46.022Z,1.40
2023-04-23T02:09:13.528Z,1.52
2023-04-23T02:11:41.060Z,1.40
2023-04-23T02:14:09.805Z,1.33
2023-04-23T02:16:37.583Z,1.40
2023-04-23T02:19:05.241Z,1.20
2023-04-23T02:21:32.807Z,1.38
2023-04-23T02:24:00.361Z,1.40
2023-04-23T02:26:29.211Z,1.50
2023-04-23T02:28:56.609Z,1.40
2023-04-23T02:31:24.108Z,1.25
2023-04-23T02:33:52.024Z,1.05
2023-04-23T02:36:19.398Z,1.58
2023-04-23T02:38:48.808Z,1.40
2023-04-23T02:41:16.147Z,1.50
2023-04-23T02:43:43.440Z,1.33
2023-04-23T02:46:10.853Z,1.58
2023-04-23T02:48:40.906Z,1.42
2023-04-23T02:51:11.998Z,1.40
2023-04-23T02:53:39.352Z,1.60
2023-04-23T02:56:07.569Z,1.40
2023-04-23T02:58:35.342Z,1.55
2023-04-23T03:01:03.879Z,1.55
2023-04-23T03:03:34.386Z,1.83
2023-04-23T03:06:03.776Z,1.65
2023-04-23T03:08:31.161Z,1.90
2023-04-23T03:10:58.638Z,1.17
2023-04-23T03:13:26.995Z,1.50
2023-04-23T03:15:56.514Z,1.50
2023-04-23T03:18:23.956Z,1.48
2023-04-23T03:20:51.398Z,1.73
2023-04-23T03:23:19.053Z,1.30
2023-04-23T03:25:46.739Z,1.67
2023-04-23T03:28:14.963Z,1.60
2023-04-23T03:30:42.556Z,1.67
2023-04-23T03:33:09.955Z,1.67
2023-04-23T03:35:37.319Z,1.50
2023-04-23T03:38:04.617Z,1.48
2023-04-23T03:40:31.954Z,1.55
2023-04-23T03:42:59.829Z,1.70
2023-04-23T03:45:27.290Z,2.10
2023-04-23T03:47:54.782Z,1.92
2023-04-23T03:50:22.343Z,1.75
2023-04-23T03:52:50.133Z,2.15
2023-04-23T03:55:17.529Z,1.85
2023-04-23T03:57:45.234Z,1.83
2023-04-23T04:00:13.213Z,2.17
2023-04-23T04:02:41.165Z,1.92
2023-04-23T04:05:10.976Z,2.10
2023-04-23T04:07:39.089Z,1.98
2023-04-23T04:10:07.708Z,2.30
2023-04-23T04:12:35.191Z,2.47
2023-04-23T04:15:03.693Z,2.55
2023-04-23T04:17:31.461Z,2.53
2023-04-23T04:19:59.063Z,2.38
2023-04-23T04:22:26.719Z,2.25
2023-04-23T04:24:54.351Z,2.50
2023-04-23T04:27:22.059Z,2.50
2023-04-23T04:29:49.753Z,2.20
2023-04-23T04:32:17.271Z,2.20
2023-04-23T04:34:44.894Z,2.38
2023-04-23T04:37:13.196Z,2.25
2023-04-23T04:39:40.841Z,2.42
2023-04-23T04:42:08.555Z,2.42
2023-04-23T04:44:37.855Z,2.45
2023-04-23T04:47:08.264Z,2.42
2023-04-23T04:49:36.402Z,2.47
2023-04-23T04:52:03.774Z,2.60
2023-04-23T04:54:31.221Z,2.45
2023-04-23T04:56:58.640Z,2.17
2023-04-23T04:59:26.017Z,2.60
2023-04-23T05:01:53.546Z,2.53
2023-04-23T05:04:21.232Z,2.60
2023-04-23T05:06:48.670Z,2.20
2023-04-23T05:09:16.900Z,2.42
2023-04-23T05:11:44.455Z,1.90
2023-04-23T05:14:12.707Z,2.70
2023-04-23T05:16:40.127Z,2.20
2023-04-23T05:19:08.411Z,3.00
2023-04-23T05:21:36.100Z,2.50
2023-04-23T05:24:03.839Z,2.42
2023-04-23T05:26:31.135Z,2.33
2023-04-23T05:28:58.677Z,2.25
2023-04-23T05:31:28.153Z,2.00
2023-04-23T05:33:56.771Z,1.98
2023-04-23T05:36:24.118Z,2.17
2023-04-23T05:38:51.409Z,1.88
2023-04-23T05:41:18.691Z,1.90
2023-04-23T05:43:46.075Z,1.75
2023-04-23T05:46:13.541Z,1.98
2023-04-23T05:48:41.007Z,1.80
2023-04-23T05:51:08.811Z,1.52
2023-04-23T05:53:36.860Z,1.95
2023-04-23T05:56:04.507Z,1.85
2023-04-23T05:58:31.977Z,1.90
2023-04-23T06:00:59.569Z,1.60
2023-04-23T06:03:27.568Z,1.80
2023-04-23T06:05:55.313Z,1.45
2023-04-23T06:08:24.944Z,1.65
2023-04-23T06:10:52.860Z,1.80
2023-04-23T06:13:20.359Z,1.63
2023-04-23T06:15:48.113Z,1.77
2023-04-23T06:18:15.724Z,1.65
2023-04-23T06:20:43.075Z,1.55
2023-04-23T06:23:11.114Z,1.90
2023-04-23T06:25:38.463Z,1.58
2023-04-23T06:28:06.340Z,1.48
2023-04-23T06:30:33.845Z,1.50
2023-04-23T06:33:02.613Z,1.48
2023-04-23T06:35:31.338Z,1.60
2023-04-23T06:37:59.182Z,1.30
2023-04-23T06:40:26.493Z,1.50
2023-04-23T06:42:54.170Z,2.10
2023-04-23T06:45:21.943Z,1.45
2023-04-23T06:47:49.965Z,1.42
2023-04-23T06:50:17.422Z,1.35
2023-04-23T06:52:45.065Z,1.40
2023-04-23T06:55:12.729Z,1.70
2023-04-23T06:57:40.038Z,1.23
2023-04-23T07:00:09.372Z,1.27
2023-04-23T07:02:37.415Z,1.30
2023-04-23T07:05:07.992Z,1.27
2023-04-23T07:07:37.726Z,1.30
2023-04-23T07:10:06.010Z,1.45
2023-04-23T07:12:33.472Z,1.05
2023-04-23T07:15:00.925Z,1.20
2023-04-23T07:17:28.493Z,1.35
2023-04-23T07:19:55.974Z,1.35
2023-04-23T07:22:25.538Z,1.40
2023-04-23T07:24:53.443Z,1.40
2023-04-23T07:27:20.961Z,1.08
2023-04-23T07:29:48.441Z,1.10
2023-04-23T07:32:16.254Z,1.35
2023-04-23T07:34:44.301Z,1.35
2023-04-23T07:37:11.863Z,1.40
2023-04-23T07:39:40.606Z,1.23
2023-04-23T07:42:09.941Z,1.38
2023-04-23T07:44:37.533Z,1.58
2023-04-23T07:47:05.067Z,1.52
2023-04-23T07:49:32.467Z,1.20
2023-04-23T07:51:59.769Z,1.10
2023-04-23T07:54:27.193Z,1.40
2023-04-23T07:56:54.661Z,1.48
2023-04-23T07:59:21.994Z,1.20
2023-04-23T08:01:49.506Z,1.10
2023-04-23T08:04:17.052Z,1.10
2023-04-23T08:06:44.686Z,1.10
2023-04-23T08:09:12.165Z,1.02
2023-04-23T08:11:39.698Z,0.93
2023-04-23T08:14:07.506Z,0.93
2023-04-23T08:16:38.129Z,1.10
2023-04-23T08:19:06.699Z,1.33
2023-04-23T08:21:34.435Z,1.15
2023-04-23T08:24:03.290Z,1.00
2023-04-23T08:26:31.735Z,1.10
2023-04-23T08:29:01.073Z,1.00
2023-04-23T08:31:28.691Z,1.27
2023-04-23T08:33:56.611Z,1.08
2023-04-23T08:36:25.119Z,1.10
2023-04-23T08:38:52.573Z,1.48
2023-04-23T08:41:24.532Z,1.10
2023-04-23T08:44:08.139Z,1.23
2023-04-23T08:46:37.375Z,1.10
2023-04-23T08:49:07.679Z,1.00
2023-04-23T08:51:40.844Z,0.90
2023-04-23T08:54:15.292Z,1.00
2023-04-23T08:56:43.181Z,1.15
2023-04-23T08:59:11.394Z,1.10
2023-04-23T09:01:39.000Z,1.23
2023-04-23T09:04:07.692Z,0.90
2023-04-23T09:06:35.402Z,1.10
2023-04-23T09:09:04.957Z,1.10
2023-04-23T09:11:32.410Z,0.82
2023-04-23T09:13:59.804Z,0.98
2023-04-23T09:16:27.194Z,1.02
2023-04-23T09:18:54.730Z,1.10
2023-04-23T09:21:22.160Z,1.48
2023-04-23T09:23:55.117Z,0.90
2023-04-23T09:26:23.168Z,1.10
2023-04-23T09:28:53.683Z,1.08
2023-04-23T09:31:23.040Z,1.00
2023-04-23T09:33:54.862Z,1.27
2023-04-23T09:36:23.834Z,1.30
2023-04-23T09:38:57.805Z,1.20
2023-04-23T09:41:27.778Z,1.33
2023-04-23T09:43:58.012Z,1.10
2023-04-23T09:46:42.377Z,1.23
2023-04-23T09:49:11.474Z,1.10
2023-04-23T09:51:44.644Z,1.20
2023-04-23T09:54:24.388Z,1.10
2023-04-23T09:57:00.317Z,1.30
2023-04-23T10:02:06.114Z,1.20
2023-04-23T10:04:36.571Z,1.20
2023-04-23T10:07:19.082Z,1.00
2023-04-23T10:09:50.476Z,1.55
2023-04-23T10:12:41.016Z,0.80
2023-04-23T10:15:10.434Z,0.88
2023-04-23T10:17:39.389Z,1.10
2023-04-23T10:20:09.631Z,0.93
2023-04-23T10:22:39.467Z,1.20
2023-04-23T10:25:11.454Z,1.50
2023-04-23T10:27:53.126Z,1.02
2023-04-23T10:30:25.486Z,1.10
2023-04-23T10:32:55.491Z,1.33
2023-04-23T10:35:24.498Z,1.30
2023-04-23T10:37:52.323Z,1.20
2023-04-23T10:40:24.633Z,1.10
2023-04-23T10:42:52.400Z,1.08
2023-04-23T10:45:25.275Z,1.30
2023-04-23T10:47:56.794Z,1.00
2023-04-23T10:50:26.500Z,1.10
2023-04-23T10:52:55.159Z,1.20
2023-04-23T10:55:27.503Z,0.90
2023-04-23T10:58:02.873Z,1.30
2023-04-23T11:00:46.088Z,1.55
2023-04-23T11:03:43.223Z,1.10
2023-04-23T11:06:39.742Z,1.10
2023-04-23T11:09:29.768Z,1.20
2023-04-23T11:12:01.652Z,1.17
2023-04-23T11:14:36.495Z,1.10
2023-04-23T11:17:07.184Z,1.25
2023-04-23T11:19:42.312Z,1.20
2023-04-23T11:22:18.878Z,1.20
2023-04-23T11:24:49.472Z,1.38
2023-04-23T11:27:20.053Z,1.30
2023-04-23T11:29:48.048Z,1.20
2023-04-23T11:32:17.852Z,1.20
2023-04-23T11:34:46.808Z,1.20
2023-04-23T11:37:15.575Z,1.23
2023-04-23T11:39:44.925Z,1.98
2023-04-23T11:42:14.363Z,0.90
2023-04-23T11:44:45.001Z,1.13
2023-04-23T11:47:14.577Z,1.10
2023-04-23T11:49:44.680Z,1.20
2023-04-23T11:52:12.986Z,1.17
2023-04-23T11:54:43.077Z,1.27
2023-04-23T11:57:14.731Z,1.00
2023-04-23T11:59:43.630Z,1.20
2023-04-23T12:02:11.494Z,1.20
2023-04-23T12:04:41.329Z,1.20
2023-04-23T12:07:23.083Z,1.30
2023-04-23T12:09:53.361Z,1.20
2023-04-23T12:12:21.449Z,1.00
2023-04-23T12:14:49.146Z,1.00
2023-04-23T12:17:16.680Z,1.20
2023-04-23T12:19:45.154Z,0.98
2023-04-23T12:22:12.614Z,1.00
2023-04-23T12:24:51.711Z,1.20
2023-04-23T12:27:22.217Z,1.10
2023-04-23T12:29:59.233Z,1.40
2023-04-23T12:32:27.218Z,1.27
2023-04-23T12:34:56.077Z,1.60
2023-04-23T12:37:31.639Z,1.30
2023-04-23T12:39:59.830Z,1.10
2023-04-23T12:42:27.330Z,1.17
2023-04-23T12:44:57.946Z,1.13
2023-04-23T12:47:25.520Z,1.00
2023-04-23T12:49:56.948Z,1.30
2023-04-23T12:52:24.506Z,1.10
2023-04-23T12:54:56.577Z,1.38
2023-04-23T12:57:24.719Z,1.17
2023-04-23T12:59:52.415Z,1.13
2023-04-23T13:02:20.148Z,1.20
2023-04-23T13:04:47.842Z,1.45
2023-04-23T13:07:15.918Z,1.30
2023-04-23T13:09:43.721Z,1.23
2023-04-23T13:12:11.745Z,1.25
2023-04-23T13:14:39.321Z,1.52
2023-04-23T13:17:07.350Z,1.10
2023-04-23T13:19:35.538Z,1.30
2023-04-23T13:22:04.384Z,1.38
2023-04-23T13:24:32.062Z,1.20
2023-04-23T13:26:59.929Z,1.10
2023-04-23T13:29:27.757Z,1.20
2023-04-23T13:31:56.072Z,1.38
2023-04-23T13:34:23.600Z,1.30
2023-04-23T13:36:51.447Z,1.17
2023-04-23T13:39:20.414Z,1.45
2023-04-23T13:41:59.056Z,1.20
2023-04-23T13:44:30.795Z,1.40
2023-04-23T13:46:59.425Z,1.35
2023-04-23T13:49:27.796Z,1.30
2023-04-23T13:51:59.136Z,1.30
2023-04-23T13:54:29.601Z,1.33
2023-04-23T13:56:57.280Z,1.42
2023-04-23T13:59:26.012Z,1.25
2023-04-23T14:01:53.948Z,1.35
2023-04-23T14:04:23.944Z,1.30
2023-04-23T14:06:51.545Z,1.20
2023-04-23T14:09:21.595Z,1.00
2023-04-23T14:11:49.045Z,1.38
2023-04-23T14:14:16.855Z,1.23
2023-04-23T14:16:44.347Z,1.23
2023-04-23T14:19:11.824Z,1.80
2023-04-23T14:21:39.178Z,1.55
2023-04-23T14:24:28.668Z,2.03
2023-04-23T14:26:57.002Z,2.30
2023-04-23T14:29:29.704Z,2.50
2023-04-23T14:31:57.166Z,2.70
2023-04-23T14:34:24.618Z,3.65
2023-04-23T14:36:55.544Z,3.28
2023-04-23T14:39:23.574Z,3.25
2023-04-23T14:41:51.032Z,3.20
2023-04-23T14:44:26.702Z,2.90
2023-04-23T14:46:54.398Z,3.15
2023-04-23T14:49:22.124Z,3.25
2023-04-23T14:51:50.988Z,3.30
2023-04-23T14:54:18.958Z,3.22
2023-04-23T14:56:46.899Z,3.05
2023-04-23T14:59:14.429Z,2.60
2023-04-23T15:01:41.945Z,2.42
2023-04-23T15:04:11.664Z,2.33
2023-04-23T15:06:40.633Z,2.20
2023-04-23T15:09:07.995Z,2.22
2023-04-23T15:11:35.780Z,2.10
2023-04-23T15:14:08.860Z,2.10
2023-04-23T15:19:10.385Z,1.77
2023-04-23T15:21:38.224Z,1.80
2023-04-23T15:24:06.167Z,2.05
2023-04-23T15:26:34.310Z,1.50
2023-04-23T15:29:01.912Z,1.50
2023-04-23T15:31:29.232Z,1.73
2023-04-23T15:33:56.860Z,1.45
2023-04-23T15:36:24.499Z,1.40
2023-04-23T15:38:52.049Z,1.65
2023-04-23T15:41:19.393Z,1.40
2023-04-23T15:43:47.620Z,1.30
2023-04-23T15:46:15.038Z,1.40
2023-04-23T15:48:42.876Z,1.65
2023-04-23T15:51:10.518Z,1.45
2023-04-23T15:53:37.861Z,2.30
2023-04-23T15:56:05.358Z,1.95
2023-04-23T15:58:32.974Z,1.42
2023-04-23T16:01:04.390Z,1.35
2023-04-23T16:03:31.926Z,1.70
2023-04-23T16:05:59.707Z,1.75
2023-04-23T16:08:27.156Z,1.70
2023-04-23T16:10:55.018Z,1.60
2023-04-23T16:13:23.215Z,1.40
2023-04-23T16:15:50.986Z,1.40
2023-04-23T16:18:18.492Z,1.45
2023-04-23T16:20:46.059Z,1.40
2023-04-23T16:23:13.565Z,2.25
2023-04-23T16:25:41.581Z,1.58
2023-04-23T16:28:09.725Z,1.60
2023-04-23T16:30:37.169Z,1.40
2023-04-23T16:33:04.627Z,1.70
2023-04-23T16:35:32.099Z,1.45
2023-04-23T16:37:59.602Z,1.75
2023-04-23T16:40:27.250Z,1.30
2023-04-23T16:42:54.770Z,2.05
2023-04-23T16:45:23.392Z,1.75
2023-04-23T16:47:51.137Z,2.10
2023-04-23T16:50:18.723Z,2.42
2023-04-23T16:52:46.293Z,2.22
2023-04-23T16:55:13.868Z,2.03
2023-04-23T16:57:41.351Z,2.00
2023-04-23T17:00:10.250Z,2.30
2023-04-23T17:02:38.903Z,2.42
2023-04-23T17:05:07.008Z,1.80
2023-04-23T17:07:34.858Z,1.98
2023-04-23T17:10:02.594Z,1.92
2023-04-23T17:12:30.069Z,1.85
2023-04-23T17:14:57.447Z,1.98
2023-04-23T17:17:24.835Z,1.95
2023-04-23T17:19:52.311Z,2.13
2023-04-23T17:22:19.692Z,1.92
2023-04-23T17:24:47.369Z,1.73
2023-04-23T17:27:14.820Z,2.03
2023-04-23T17:29:42.345Z,2.15
2023-04-23T17:32:09.759Z,1.75
2023-04-23T17:34:37.295Z,2.03
2023-04-23T17:37:04.637Z,1.75
2023-04-23T17:39:32.090Z,2.20
2023-04-23T17:41:59.539Z,1.90
2023-04-23T17:44:27.030Z,1.75
2023-04-23T17:46:55.330Z,1.92
2023-04-23T17:49:23.058Z,1.83
2023-04-23T17:51:50.649Z,1.83
2023-04-23T17:54:18.366Z,2.10
2023-04-23T17:56:45.949Z,1.80
2023-04-23T17:59:13.428Z,2.30
2023-04-23T18:01:40.924Z,2.00
2023-04-23T18:04:08.973Z,1.95
2023-04-23T18:06:37.294Z,2.63
2023-04-23T18:09:04.724Z,1.95
2023-04-23T18:11:32.381Z,1.95
2023-04-23T18:14:00.152Z,2.08
2023-04-23T18:16:27.650Z,2.10
2023-04-23T18:18:55.191Z,2.03
2023-04-23T18:21:23.469Z,1.98
2023-04-23T18:23:51.046Z,2.03
2023-04-23T18:26:18.383Z,1.83
2023-04-23T18:28:45.738Z,2.03
2023-04-23T18:31:13.236Z,2.33
2023-04-23T18:33:41.108Z,2.10
2023-04-23T18:36:24.311Z,2.45
2023-04-23T18:38:51.842Z,2.00
2023-04-23T18:41:19.317Z,2.20
2023-04-23T18:43:47.789Z,2.05
2023-04-23T18:46:15.598Z,1.98
2023-04-23T18:48:51.413Z,2.17
2023-04-23T18:51:18.756Z,2.00
2023-04-23T18:53:46.916Z,2.50
2023-04-23T18:56:15.196Z,2.67
2023-04-23T18:58:42.713Z,2.13
2023-04-23T19:01:10.174Z,2.42
2023-04-23T19:03:37.839Z,2.30
2023-04-23T19:06:07.843Z,2.25
2023-04-23T19:08:38.970Z,1.95
2023-04-23T19:11:06.524Z,2.28
2023-04-23T19:13:34.123Z,2.20
2023-04-23T19:16:01.634Z,1.83
2023-04-23T19:18:29.098Z,1.75
2023-04-23T19:20:57.341Z,1.75
2023-04-23T19:23:25.191Z,2.00
2023-04-23T19:25:52.494Z,1.77
2023-04-23T19:28:20.249Z,2.00
2023-04-23T19:30:47.743Z,2.25
2023-04-23T19:33:15.292Z,2.00
2023-04-23T19:35:42.894Z,2.10
2023-04-23T19:38:10.515Z,1.88
2023-04-23T19:40:38.154Z,1.73
2023-04-23T19:43:05.681Z,2.17
2023-04-23T19:45:33.783Z,1.98
2023-04-23T19:48:04.564Z,1.90
2023-04-23T19:50:32.269Z,1.85
2023-04-23T19:53:00.008Z,1.92
2023-04-23T19:55:27.497Z,2.20
2023-04-23T19:57:55.936Z,1.80
2023-04-23T20:00:26.899Z,1.80
2023-04-23T20:02:55.612Z,1.88
2023-04-23T20:05:23.199Z,2.05
2023-04-23T20:07:51.479Z,2.10
2023-04-23T20:10:18.989Z,2.08
2023-04-23T20:12:46.362Z,2.03
2023-04-23T20:15:13.848Z,2.17
2023-04-23T20:17:41.694Z,1.88
2023-04-23T20:20:10.886Z,2.08
2023-04-23T20:22:38.725Z,1.98
2023-04-23T20:25:06.804Z,2.15
2023-04-23T20:27:34.658Z,2.00
2023-04-23T20:30:07.644Z,1.90
2023-04-23T20:32:35.143Z,1.92
2023-04-23T20:35:02.688Z,1.80
2023-04-23T20:37:30.229Z,1.67
2023-04-23T20:39:58.532Z,2.00
2023-04-23T20:42:25.957Z,1.85
2023-04-23T20:44:53.386Z,2.00
2023-04-23T20:47:21.076Z,1.85
2023-04-23T20:49:48.532Z,1.80
2023-04-23T20:52:16.194Z,1.70
2023-04-23T20:54:45.199Z,1.83
2023-04-23T20:57:12.556Z,1.63
2023-04-23T20:59:40.424Z,1.83
2023-04-23T21:02:08.998Z,1.95
2023-04-23T21:04:36.554Z,2.08
2023-04-23T21:07:04.469Z,1.95
2023-04-23T21:09:32.080Z,1.60
2023-04-23T21:12:00.221Z,2.00
2023-04-23T21:14:28.356Z,2.28
2023-04-23T21:16:57.077Z,1.88
2023-04-23T21:19:24.472Z,1.88
2023-04-23T21:21:51.875Z,2.08
2023-04-23T21:24:19.356Z,1.55
2023-04-23T21:26:46.971Z,2.05
2023-04-23T21:29:14.430Z,2.13
2023-04-23T21:31:52.117Z,2.20
2023-04-23T21:34:19.796Z,2.05
2023-04-23T21:36:47.301Z,2.20
2023-04-23T21:39:15.036Z,2.38
2023-04-23T21:41:43.074Z,2.53
2023-04-23T21:44:10.477Z,2.45
2023-04-23T21:46:39.227Z,2.42
2023-04-23T21:49:07.121Z,2.50
2023-04-23T21:51:37.202Z,2.80
2023-04-23T21:54:08.273Z,2.38
2023-04-23T21:56:36.296Z,2.60
2023-04-23T21:59:03.865Z,2.40
2023-04-23T22:01:32.631Z,2.72
2023-04-23T22:04:03.504Z,3.17
2023-04-23T22:06:31.340Z,2.70
2023-04-23T22:08:59.543Z,2.90
2023-04-23T22:11:27.165Z,3.05
2023-04-23T22:13:54.585Z,3.22
2023-04-23T22:16:28.851Z,3.10
2023-04-23T22:19:00.681Z,3.08
2023-04-23T22:21:28.522Z,3.40
2023-04-23T22:23:56.189Z,3.15
2023-04-23T22:26:23.670Z,3.45
2023-04-23T22:28:51.308Z,3.20
2023-04-23T22:31:18.798Z,3.40
2023-04-23T22:33:46.264Z,3.75
2023-04-23T22:36:15.021Z,3.92
2023-04-23T22:38:42.436Z,4.00
2023-04-23T22:41:09.956Z,3.35
2023-04-23T22:43:37.370Z,3.42
2023-04-23T22:46:05.203Z,4.05
2023-04-23T22:48:33.131Z,3.55
2023-04-23T22:51:01.123Z,3.42
2023-04-23T22:53:29.760Z,3.85
2023-04-23T22:55:57.126Z,3.58
2023-04-23T22:58:24.569Z,4.00
2023-04-23T23:00:52.511Z,3.80
2023-04-23T23:03:19.915Z,4.03
2023-04-23T23:05:47.572Z,3.72
2023-04-23T23:08:15.119Z,3.72
2023-04-23T23:10:42.686Z,3.55
2023-04-23T23:13:10.123Z,3.90
2023-04-23T23:15:37.539Z,3.70
2023-04-23T23:18:06.416Z,4.15
2023-04-23T23:20:33.948Z,3.90
2023-04-23T23:23:01.402Z,3.80
2023-04-23T23:25:28.885Z,3.60
2023-04-23T23:27:56.258Z,3.95
2023-04-23T23:30:25.888Z,4.07
2023-04-23T23:32:54.877Z,4.10
2023-04-23T23:35:22.227Z,4.10
2023-04-23T23:37:49.497Z,3.95
2023-04-23T23:40:17.149Z,3.78
2023-04-23T23:42:44.511Z,4.50
2023-04-23T23:45:12.202Z,4.32
2023-04-23T23:47:40.800Z,4.22
2023-04-23T23:50:08.947Z,4.38
2023-04-23T23:52:38.213Z,4.25
2023-04-23T23:55:07.164Z,4.00
2023-04-23T23:57:34.483Z,4.10
